sensor_id;sensor_type;location;lat;lon;timestamp;P1;durP1;ratioP1;P2;durP2;ratioP2
35444;SDS011;21562;49.476;6.086;2024-02-26T00:02:23;3.25;;;0.90;;
35444;SDS011;21562;49.476;6.086;2024-02-26T00:04:49;1.92;;;0.80;;
35444;SDS011;21562;49.476;6.086;2024-02-26T00:07:15;1.48;;;0.80;;
35444;SDS011;21562;49.476;6.086;2024-02-26T00:09:41;1.20;;;0.80;;
35444;SDS011;21562;49.476;6.086;2024-02-26T00:12:07;3.17;;;1.08;;
35444;SDS011;21562;49.476;6.086;2024-02-26T00:14:32;1.92;;;0.90;;
35444;SDS011;21562;49.476;6.086;2024-02-26T00:16:59;1.40;;;0.70;;
35444;SDS011;21562;49.476;6.086;2024-02-26T00:19:25;1.27;;;0.60;;
35444;SDS011;21562;49.476;6.086;2024-02-26T00:21:50;1.95;;;0.88;;
35444;SDS011;21562;49.476;6.086;2024-02-26T00:24:16;1.73;;;1.02;;
35444;SDS011;21562;49.476;6.086;2024-02-26T00:26:42;2.40;;;0.85;;
35444;SDS011;21562;49.476;6.086;2024-02-26T00:29:07;1.83;;;0.80;;
35444;SDS011;21562;49.476;6.086;2024-02-26T00:31:33;2.15;;;0.98;;
35444;SDS011;21562;49.476;6.086;2024-02-26T00:34:00;3.45;;;0.95;;
35444;SDS011;21562;49.476;6.086;2024-02-26T00:36:26;2.75;;;1.00;;
35444;SDS011;21562;49.476;6.086;2024-02-26T00:38:51;2.67;;;1.10;;
35444;SDS011;21562;49.476;6.086;2024-02-26T00:41:17;2.97;;;1.05;;
35444;SDS011;21562;49.476;6.086;2024-02-26T00:43:44;1.77;;;0.80;;
35444;SDS011;21562;49.476;6.086;2024-02-26T00:46:09;2.58;;;0.90;;
35444;SDS011;21562;49.476;6.086;2024-02-26T00:48:35;3.28;;;1.20;;
35444;SDS011;21562;49.476;6.086;2024-02-26T00:51:02;1.50;;;1.00;;
35444;SDS011;21562;49.476;6.086;2024-02-26T00:53:30;2.28;;;1.10;;
35444;SDS011;21562;49.476;6.086;2024-02-26T00:55:56;4.03;;;1.27;;
35444;SDS011;21562;49.476;6.086;2024-02-26T00:58:24;1.52;;;0.75;;
35444;SDS011;21562;49.476;6.086;2024-02-26T01:00:50;3.45;;;1.00;;
35444;SDS011;21562;49.476;6.086;2024-02-26T01:03:16;3.00;;;1.20;;
35444;SDS011;21562;49.476;6.086;2024-02-26T01:05:42;2.80;;;1.00;;
35444;SDS011;21562;49.476;6.086;2024-02-26T01:08:08;2.65;;;0.88;;
35444;SDS011;21562;49.476;6.086;2024-02-26T01:10:34;1.58;;;0.80;;
35444;SDS011;21562;49.476;6.086;2024-02-26T01:12:59;8.13;;;1.23;;
35444;SDS011;21562;49.476;6.086;2024-02-26T01:15:25;2.45;;;1.15;;
35444;SDS011;21562;49.476;6.086;2024-02-26T01:17:52;1.90;;;1.20;;
35444;SDS011;21562;49.476;6.086;2024-02-26T01:20:18;1.20;;;0.80;;
35444;SDS011;21562;49.476;6.086;2024-02-26T01:22:44;2.17;;;0.98;;
35444;SDS011;21562;49.476;6.086;2024-02-26T01:25:10;2.13;;;1.02;;
35444;SDS011;21562;49.476;6.086;2024-02-26T01:27:36;1.55;;;0.90;;
35444;SDS011;21562;49.476;6.086;2024-02-26T01:30:05;2.10;;;0.90;;
35444;SDS011;21562;49.476;6.086;2024-02-26T01:32:32;2.30;;;0.85;;
35444;SDS011;21562;49.476;6.086;2024-02-26T01:34:57;2.95;;;0.80;;
35444;SDS011;21562;49.476;6.086;2024-02-26T01:37:23;1.73;;;1.10;;
35444;SDS011;21562;49.476;6.086;2024-02-26T01:39:49;1.38;;;0.90;;
35444;SDS011;21562;49.476;6.086;2024-02-26T01:42:14;1.42;;;0.70;;
35444;SDS011;21562;49.476;6.086;2024-02-26T01:44:40;1.17;;;0.68;;
35444;SDS011;21562;49.476;6.086;2024-02-26T01:47:07;1.30;;;0.77;;
35444;SDS011;21562;49.476;6.086;2024-02-26T01:49:35;1.73;;;0.80;;
35444;SDS011;21562;49.476;6.086;2024-02-26T01:52:01;1.33;;;0.80;;
35444;SDS011;21562;49.476;6.086;2024-02-26T01:54:29;1.05;;;0.93;;
35444;SDS011;21562;49.476;6.086;2024-02-26T01:56:55;0.80;;;0.50;;
35444;SDS011;21562;49.476;6.086;2024-02-26T01:59:22;1.48;;;0.70;;
35444;SDS011;21562;49.476;6.086;2024-02-26T02:01:51;1.95;;;0.70;;
35444;SDS011;21562;49.476;6.086;2024-02-26T02:04:20;0.75;;;0.50;;
35444;SDS011;21562;49.476;6.086;2024-02-26T02:06:48;1.00;;;0.70;;
35444;SDS011;21562;49.476;6.086;2024-02-26T02:09:14;1.40;;;0.60;;
35444;SDS011;21562;49.476;6.086;2024-02-26T02:11:41;1.27;;;0.63;;
35444;SDS011;21562;49.476;6.086;2024-02-26T02:14:07;2.00;;;0.55;;
35444;SDS011;21562;49.476;6.086;2024-02-26T02:16:33;2.03;;;0.50;;
35444;SDS011;21562;49.476;6.086;2024-02-26T02:18:59;0.40;;;0.40;;
35444;SDS011;21562;49.476;6.086;2024-02-26T02:21:24;0.75;;;0.75;;
35444;SDS011;21562;49.476;6.086;2024-02-26T02:23:50;1.38;;;0.75;;
35444;SDS011;21562;49.476;6.086;2024-02-26T02:26:16;0.60;;;0.40;;
35444;SDS011;21562;49.476;6.086;2024-02-26T02:28:42;1.67;;;0.70;;
35444;SDS011;21562;49.476;6.086;2024-02-26T02:31:08;0.75;;;0.60;;
35444;SDS011;21562;49.476;6.086;2024-02-26T02:33:34;0.90;;;0.60;;
35444;SDS011;21562;49.476;6.086;2024-02-26T02:36:00;0.75;;;0.60;;
35444;SDS011;21562;49.476;6.086;2024-02-26T02:38:26;0.55;;;0.43;;
35444;SDS011;21562;49.476;6.086;2024-02-26T02:40:54;1.55;;;0.50;;
35444;SDS011;21562;49.476;6.086;2024-02-26T02:43:20;0.65;;;0.43;;
35444;SDS011;21562;49.476;6.086;2024-02-26T02:45:46;0.98;;;0.73;;
35444;SDS011;21562;49.476;6.086;2024-02-26T02:48:12;0.98;;;0.60;;
35444;SDS011;21562;49.476;6.086;2024-02-26T02:50:37;0.55;;;0.50;;
35444;SDS011;21562;49.476;6.086;2024-02-26T02:53:03;1.00;;;0.55;;
35444;SDS011;21562;49.476;6.086;2024-02-26T02:55:29;0.52;;;0.52;;
35444;SDS011;21562;49.476;6.086;2024-02-26T02:57:55;1.92;;;0.85;;
35444;SDS011;21562;49.476;6.086;2024-02-26T03:00:21;1.10;;;0.70;;
35444;SDS011;21562;49.476;6.086;2024-02-26T03:02:49;0.98;;;0.70;;
35444;SDS011;21562;49.476;6.086;2024-02-26T03:05:15;1.02;;;0.60;;
35444;SDS011;21562;49.476;6.086;2024-02-26T03:07:41;1.35;;;0.82;;
35444;SDS011;21562;49.476;6.086;2024-02-26T03:10:07;1.00;;;0.90;;
35444;SDS011;21562;49.476;6.086;2024-02-26T03:12:33;6.18;;;0.90;;
35444;SDS011;21562;49.476;6.086;2024-02-26T03:14:59;1.83;;;1.08;;
35444;SDS011;21562;49.476;6.086;2024-02-26T03:17:29;1.40;;;1.30;;
35444;SDS011;21562;49.476;6.086;2024-02-26T03:19:55;1.27;;;1.13;;
35444;SDS011;21562;49.476;6.086;2024-02-26T03:22:21;2.42;;;1.25;;
35444;SDS011;21562;49.476;6.086;2024-02-26T03:24:47;1.75;;;1.35;;
35444;SDS011;21562;49.476;6.086;2024-02-26T03:27:13;1.33;;;1.00;;
35444;SDS011;21562;49.476;6.086;2024-02-26T03:29:39;1.15;;;0.60;;
35444;SDS011;21562;49.476;6.086;2024-02-26T03:32:05;1.13;;;0.85;;
35444;SDS011;21562;49.476;6.086;2024-02-26T03:34:32;2.20;;;1.00;;
35444;SDS011;21562;49.476;6.086;2024-02-26T03:37:00;2.22;;;1.90;;
35444;SDS011;21562;49.476;6.086;2024-02-26T03:39:26;1.88;;;1.52;;
35444;SDS011;21562;49.476;6.086;2024-02-26T03:41:52;2.22;;;1.95;;
35444;SDS011;21562;49.476;6.086;2024-02-26T03:44:17;2.33;;;2.13;;
35444;SDS011;21562;49.476;6.086;2024-02-26T03:46:43;1.98;;;1.77;;
35444;SDS011;21562;49.476;6.086;2024-02-26T03:49:09;3.30;;;2.05;;
35444;SDS011;21562;49.476;6.086;2024-02-26T03:51:35;2.50;;;2.10;;
35444;SDS011;21562;49.476;6.086;2024-02-26T03:54:00;2.00;;;1.70;;
35444;SDS011;21562;49.476;6.086;2024-02-26T03:56:27;2.95;;;2.20;;
35444;SDS011;21562;49.476;6.086;2024-02-26T03:58:53;2.55;;;1.60;;
35444;SDS011;21562;49.476;6.086;2024-02-26T04:01:19;1.20;;;1.10;;
35444;SDS011;21562;49.476;6.086;2024-02-26T04:03:45;1.40;;;1.30;;
35444;SDS011;21562;49.476;6.086;2024-02-26T04:06:11;1.20;;;1.10;;
35444;SDS011;21562;49.476;6.086;2024-02-26T04:08:39;1.50;;;1.02;;
35444;SDS011;21562;49.476;6.086;2024-02-26T04:11:06;1.02;;;0.82;;
35444;SDS011;21562;49.476;6.086;2024-02-26T04:13:32;1.25;;;1.00;;
35444;SDS011;21562;49.476;6.086;2024-02-26T04:15:59;0.65;;;0.60;;
35444;SDS011;21562;49.476;6.086;2024-02-26T04:18:26;2.72;;;0.80;;
35444;SDS011;21562;49.476;6.086;2024-02-26T04:20:53;0.60;;;0.60;;
35444;SDS011;21562;49.476;6.086;2024-02-26T04:23:19;1.33;;;0.70;;
35444;SDS011;21562;49.476;6.086;2024-02-26T04:25:45;0.93;;;0.70;;
35444;SDS011;21562;49.476;6.086;2024-02-26T04:28:11;0.85;;;0.52;;
35444;SDS011;21562;49.476;6.086;2024-02-26T04:30:37;2.92;;;0.85;;
35444;SDS011;21562;49.476;6.086;2024-02-26T04:33:03;1.13;;;1.00;;
35444;SDS011;21562;49.476;6.086;2024-02-26T04:35:29;1.38;;;0.80;;
35444;SDS011;21562;49.476;6.086;2024-02-26T04:37:54;1.45;;;0.70;;
35444;SDS011;21562;49.476;6.086;2024-02-26T04:40:20;0.95;;;0.40;;
35444;SDS011;21562;49.476;6.086;2024-02-26T04:42:46;0.57;;;0.50;;
35444;SDS011;21562;49.476;6.086;2024-02-26T04:45:12;0.47;;;0.25;;
35444;SDS011;21562;49.476;6.086;2024-02-26T04:47:37;0.82;;;0.30;;
35444;SDS011;21562;49.476;6.086;2024-02-26T04:50:04;0.43;;;0.32;;
35444;SDS011;21562;49.476;6.086;2024-02-26T04:52:30;0.70;;;0.30;;
35444;SDS011;21562;49.476;6.086;2024-02-26T04:54:56;2.80;;;0.60;;
35444;SDS011;21562;49.476;6.086;2024-02-26T04:57:22;0.70;;;0.50;;
35444;SDS011;21562;49.476;6.086;2024-02-26T04:59:47;1.60;;;1.40;;
35444;SDS011;21562;49.476;6.086;2024-02-26T05:02:13;3.25;;;1.60;;
35444;SDS011;21562;49.476;6.086;2024-02-26T05:04:39;1.73;;;1.63;;
35444;SDS011;21562;49.476;6.086;2024-02-26T05:07:05;4.57;;;2.05;;
35444;SDS011;21562;49.476;6.086;2024-02-26T05:09:31;4.60;;;1.95;;
35444;SDS011;21562;49.476;6.086;2024-02-26T05:11:57;1.83;;;1.73;;
35444;SDS011;21562;49.476;6.086;2024-02-26T05:14:23;2.55;;;1.63;;
35444;SDS011;21562;49.476;6.086;2024-02-26T05:16:49;2.55;;;1.73;;
35444;SDS011;21562;49.476;6.086;2024-02-26T05:19:14;1.80;;;1.10;;
35444;SDS011;21562;49.476;6.086;2024-02-26T05:21:40;1.63;;;1.02;;
35444;SDS011;21562;49.476;6.086;2024-02-26T05:24:07;2.92;;;1.20;;
35444;SDS011;21562;49.476;6.086;2024-02-26T05:26:33;1.33;;;1.23;;
35444;SDS011;21562;49.476;6.086;2024-02-26T05:28:59;1.30;;;1.23;;
35444;SDS011;21562;49.476;6.086;2024-02-26T05:31:25;0.80;;;0.80;;
35444;SDS011;21562;49.476;6.086;2024-02-26T05:33:51;0.80;;;0.80;;
35444;SDS011;21562;49.476;6.086;2024-02-26T05:36:20;1.20;;;0.73;;
35444;SDS011;21562;49.476;6.086;2024-02-26T05:38:47;0.77;;;0.70;;
35444;SDS011;21562;49.476;6.086;2024-02-26T05:41:15;0.55;;;0.55;;
35444;SDS011;21562;49.476;6.086;2024-02-26T05:43:41;0.90;;;0.70;;
35444;SDS011;21562;49.476;6.086;2024-02-26T05:46:07;1.13;;;0.80;;
35444;SDS011;21562;49.476;6.086;2024-02-26T05:48:32;1.42;;;1.10;;
35444;SDS011;21562;49.476;6.086;2024-02-26T05:50:58;2.13;;;0.80;;
35444;SDS011;21562;49.476;6.086;2024-02-26T05:53:24;2.25;;;0.60;;
35444;SDS011;21562;49.476;6.086;2024-02-26T05:55:49;1.20;;;0.80;;
35444;SDS011;21562;49.476;6.086;2024-02-26T05:58:15;0.82;;;0.60;;
35444;SDS011;21562;49.476;6.086;2024-02-26T06:00:41;0.60;;;0.60;;
35444;SDS011;21562;49.476;6.086;2024-02-26T06:03:06;0.77;;;0.57;;
35444;SDS011;21562;49.476;6.086;2024-02-26T06:05:32;0.82;;;0.73;;
35444;SDS011;21562;49.476;6.086;2024-02-26T06:07:58;0.50;;;0.47;;
35444;SDS011;21562;49.476;6.086;2024-02-26T06:10:23;0.95;;;0.60;;
35444;SDS011;21562;49.476;6.086;2024-02-26T06:12:49;0.50;;;0.50;;
35444;SDS011;21562;49.476;6.086;2024-02-26T06:15:15;2.25;;;0.60;;
35444;SDS011;21562;49.476;6.086;2024-02-26T06:17:40;2.95;;;0.82;;
35444;SDS011;21562;49.476;6.086;2024-02-26T06:20:07;1.55;;;1.00;;
35444;SDS011;21562;49.476;6.086;2024-02-26T06:22:36;1.98;;;1.08;;
35444;SDS011;21562;49.476;6.086;2024-02-26T06:25:02;0.75;;;0.70;;
35444;SDS011;21562;49.476;6.086;2024-02-26T06:27:28;1.42;;;1.02;;
35444;SDS011;21562;49.476;6.086;2024-02-26T06:29:54;1.83;;;1.40;;
35444;SDS011;21562;49.476;6.086;2024-02-26T06:32:19;1.58;;;1.27;;
35444;SDS011;21562;49.476;6.086;2024-02-26T06:34:48;1.73;;;1.40;;
35444;SDS011;21562;49.476;6.086;2024-02-26T06:37:13;2.40;;;1.95;;
35444;SDS011;21562;49.476;6.086;2024-02-26T06:39:39;1.90;;;1.70;;
35444;SDS011;21562;49.476;6.086;2024-02-26T06:42:06;3.47;;;3.03;;
35444;SDS011;21562;49.476;6.086;2024-02-26T06:44:31;2.50;;;2.30;;
35444;SDS011;21562;49.476;6.086;2024-02-26T06:46:58;3.40;;;2.90;;
35444;SDS011;21562;49.476;6.086;2024-02-26T06:49:24;7.75;;;3.58;;
35444;SDS011;21562;49.476;6.086;2024-02-26T06:51:51;3.17;;;2.88;;
35444;SDS011;21562;49.476;6.086;2024-02-26T06:54:16;3.85;;;3.38;;
35444;SDS011;21562;49.476;6.086;2024-02-26T06:56:42;3.75;;;2.60;;
35444;SDS011;21562;49.476;6.086;2024-02-26T06:59:08;3.03;;;2.63;;
35444;SDS011;21562;49.476;6.086;2024-02-26T07:01:33;3.15;;;2.83;;
35444;SDS011;21562;49.476;6.086;2024-02-26T07:17:28;4.53;;;2.70;;
35444;SDS011;21562;49.476;6.086;2024-02-26T07:19:54;5.68;;;3.33;;
35444;SDS011;21562;49.476;6.086;2024-02-26T07:22:20;4.40;;;2.80;;
35444;SDS011;21562;49.476;6.086;2024-02-26T07:24:46;5.18;;;3.05;;
35444;SDS011;21562;49.476;6.086;2024-02-26T07:27:11;4.78;;;3.10;;
35444;SDS011;21562;49.476;6.086;2024-02-26T07:29:37;4.75;;;3.00;;
35444;SDS011;21562;49.476;6.086;2024-02-26T07:32:03;4.88;;;3.03;;
35444;SDS011;21562;49.476;6.086;2024-02-26T07:34:29;3.50;;;2.70;;
35444;SDS011;21562;49.476;6.086;2024-02-26T07:36:55;3.63;;;2.70;;
35444;SDS011;21562;49.476;6.086;2024-02-26T07:39:21;2.85;;;2.40;;
35444;SDS011;21562;49.476;6.086;2024-02-26T07:41:47;4.15;;;2.50;;
35444;SDS011;21562;49.476;6.086;2024-02-26T07:44:15;5.07;;;2.53;;
35444;SDS011;21562;49.476;6.086;2024-02-26T07:46:40;4.13;;;2.80;;
35444;SDS011;21562;49.476;6.086;2024-02-26T07:49:06;6.55;;;2.53;;
35444;SDS011;21562;49.476;6.086;2024-02-26T07:51:33;7.32;;;2.85;;
35444;SDS011;21562;49.476;6.086;2024-02-26T07:53:59;6.85;;;3.03;;
35444;SDS011;21562;49.476;6.086;2024-02-26T07:56:26;2.80;;;2.38;;
35444;SDS011;21562;49.476;6.086;2024-02-26T07:58:51;4.40;;;3.13;;
35444;SDS011;21562;49.476;6.086;2024-02-26T08:01:17;3.90;;;2.92;;
35444;SDS011;21562;49.476;6.086;2024-02-26T08:03:43;5.60;;;2.90;;
35444;SDS011;21562;49.476;6.086;2024-02-26T08:06:08;5.20;;;3.00;;
35444;SDS011;21562;49.476;6.086;2024-02-26T08:08:34;5.82;;;3.40;;
35444;SDS011;21562;49.476;6.086;2024-02-26T08:11:00;4.22;;;3.30;;
35444;SDS011;21562;49.476;6.086;2024-02-26T08:13:25;3.90;;;3.22;;
35444;SDS011;21562;49.476;6.086;2024-02-26T08:15:51;5.35;;;3.63;;
35444;SDS011;21562;49.476;6.086;2024-02-26T08:18:17;15.30;;;8.68;;
35444;SDS011;21562;49.476;6.086;2024-02-26T08:20:44;5.00;;;3.50;;
35444;SDS011;21562;49.476;6.086;2024-02-26T08:23:10;14.30;;;8.23;;
35444;SDS011;21562;49.476;6.086;2024-02-26T08:25:35;6.43;;;4.60;;
35444;SDS011;21562;49.476;6.086;2024-02-26T08:28:01;5.72;;;4.20;;
35444;SDS011;21562;49.476;6.086;2024-02-26T08:30:28;4.43;;;3.60;;
35444;SDS011;21562;49.476;6.086;2024-02-26T08:32:53;5.53;;;4.53;;
35444;SDS011;21562;49.476;6.086;2024-02-26T08:35:19;6.65;;;3.47;;
35444;SDS011;21562;49.476;6.086;2024-02-26T08:37:45;4.35;;;3.25;;
35444;SDS011;21562;49.476;6.086;2024-02-26T08:40:12;2.50;;;2.30;;
35444;SDS011;21562;49.476;6.086;2024-02-26T08:42:37;3.47;;;2.65;;
35444;SDS011;21562;49.476;6.086;2024-02-26T08:45:03;4.32;;;2.15;;
35444;SDS011;21562;49.476;6.086;2024-02-26T08:47:29;18.77;;;7.20;;
35444;SDS011;21562;49.476;6.086;2024-02-26T08:49:55;13.57;;;6.68;;
35444;SDS011;21562;49.476;6.086;2024-02-26T08:52:21;8.80;;;3.08;;
35444;SDS011;21562;49.476;6.086;2024-02-26T08:54:49;3.92;;;2.85;;
35444;SDS011;21562;49.476;6.086;2024-02-26T08:57:15;4.22;;;2.72;;
35444;SDS011;21562;49.476;6.086;2024-02-26T08:59:41;8.23;;;4.05;;
35444;SDS011;21562;49.476;6.086;2024-02-26T09:02:07;3.83;;;2.13;;
35444;SDS011;21562;49.476;6.086;2024-02-26T09:04:36;5.75;;;3.17;;
35444;SDS011;21562;49.476;6.086;2024-02-26T09:07:01;3.67;;;2.45;;
35444;SDS011;21562;49.476;6.086;2024-02-26T09:09:28;6.25;;;3.20;;
35444;SDS011;21562;49.476;6.086;2024-02-26T09:11:54;6.75;;;2.58;;
35444;SDS011;21562;49.476;6.086;2024-02-26T09:14:20;5.07;;;3.50;;
35444;SDS011;21562;49.476;6.086;2024-02-26T09:16:47;4.22;;;3.22;;
35444;SDS011;21562;49.476;6.086;2024-02-26T09:19:17;3.35;;;2.40;;
35444;SDS011;21562;49.476;6.086;2024-02-26T09:21:43;3.05;;;2.05;;
35444;SDS011;21562;49.476;6.086;2024-02-26T09:24:10;3.28;;;2.22;;
35444;SDS011;21562;49.476;6.086;2024-02-26T09:26:39;2.90;;;2.15;;
35444;SDS011;21562;49.476;6.086;2024-02-26T09:29:05;3.67;;;2.22;;
35444;SDS011;21562;49.476;6.086;2024-02-26T09:31:31;3.65;;;2.00;;
35444;SDS011;21562;49.476;6.086;2024-02-26T09:33:57;4.82;;;1.65;;
35444;SDS011;21562;49.476;6.086;2024-02-26T09:36:22;2.97;;;1.48;;
35444;SDS011;21562;49.476;6.086;2024-02-26T09:38:48;4.03;;;2.70;;
35444;SDS011;21562;49.476;6.086;2024-02-26T09:41:14;5.32;;;1.40;;
35444;SDS011;21562;49.476;6.086;2024-02-26T09:43:44;3.72;;;1.88;;
35444;SDS011;21562;49.476;6.086;2024-02-26T09:46:11;2.90;;;1.30;;
35444;SDS011;21562;49.476;6.086;2024-02-26T09:48:37;2.30;;;1.50;;
35444;SDS011;21562;49.476;6.086;2024-02-26T09:51:03;2.53;;;1.15;;
35444;SDS011;21562;49.476;6.086;2024-02-26T09:53:30;3.40;;;1.88;;
35444;SDS011;21562;49.476;6.086;2024-02-26T09:55:58;5.35;;;1.77;;
35444;SDS011;21562;49.476;6.086;2024-02-26T09:58:24;2.35;;;1.50;;
35444;SDS011;21562;49.476;6.086;2024-02-26T10:00:53;4.05;;;1.95;;
35444;SDS011;21562;49.476;6.086;2024-02-26T10:03:25;3.10;;;1.30;;
35444;SDS011;21562;49.476;6.086;2024-02-26T10:05:56;3.47;;;1.33;;
35444;SDS011;21562;49.476;6.086;2024-02-26T10:08:23;3.13;;;1.50;;
35444;SDS011;21562;49.476;6.086;2024-02-26T10:10:50;2.53;;;1.52;;
35444;SDS011;21562;49.476;6.086;2024-02-26T10:13:16;1.77;;;1.25;;
35444;SDS011;21562;49.476;6.086;2024-02-26T10:15:42;2.53;;;1.55;;
35444;SDS011;21562;49.476;6.086;2024-02-26T10:18:08;1.92;;;1.50;;
35444;SDS011;21562;49.476;6.086;2024-02-26T10:20:34;2.53;;;1.40;;
35444;SDS011;21562;49.476;6.086;2024-02-26T10:23:03;2.65;;;1.80;;
35444;SDS011;21562;49.476;6.086;2024-02-26T10:25:30;3.10;;;1.50;;
35444;SDS011;21562;49.476;6.086;2024-02-26T10:28:00;2.15;;;1.33;;
35444;SDS011;21562;49.476;6.086;2024-02-26T10:30:29;2.83;;;1.40;;
35444;SDS011;21562;49.476;6.086;2024-02-26T10:32:55;3.72;;;1.65;;
35444;SDS011;21562;49.476;6.086;2024-02-26T10:35:21;3.97;;;2.20;;
35444;SDS011;21562;49.476;6.086;2024-02-26T10:37:47;2.58;;;1.60;;
35444;SDS011;21562;49.476;6.086;2024-02-26T10:40:17;3.53;;;2.40;;
35444;SDS011;21562;49.476;6.086;2024-02-26T10:42:43;2.80;;;2.03;;
35444;SDS011;21562;49.476;6.086;2024-02-26T10:45:10;2.67;;;1.98;;
35444;SDS011;21562;49.476;6.086;2024-02-26T10:47:37;2.75;;;1.90;;
35444;SDS011;21562;49.476;6.086;2024-02-26T10:50:05;6.35;;;3.80;;
35444;SDS011;21562;49.476;6.086;2024-02-26T10:52:32;2.80;;;1.90;;
35444;SDS011;21562;49.476;6.086;2024-02-26T10:55:00;3.75;;;2.75;;
35444;SDS011;21562;49.476;6.086;2024-02-26T10:57:34;3.67;;;2.60;;
35444;SDS011;21562;49.476;6.086;2024-02-26T11:00:04;4.47;;;2.05;;
35444;SDS011;21562;49.476;6.086;2024-02-26T11:02:31;1.88;;;1.67;;
35444;SDS011;21562;49.476;6.086;2024-02-26T11:05:00;2.55;;;2.03;;
35444;SDS011;21562;49.476;6.086;2024-02-26T11:07:29;3.33;;;2.10;;
35444;SDS011;21562;49.476;6.086;2024-02-26T11:09:56;4.60;;;1.65;;
35444;SDS011;21562;49.476;6.086;2024-02-26T11:12:22;1.42;;;1.23;;
35444;SDS011;21562;49.476;6.086;2024-02-26T11:14:49;2.90;;;1.50;;
35444;SDS011;21562;49.476;6.086;2024-02-26T11:17:20;3.90;;;3.45;;
35444;SDS011;21562;49.476;6.086;2024-02-26T11:19:47;3.35;;;2.10;;
35444;SDS011;21562;49.476;6.086;2024-02-26T11:22:14;4.13;;;1.95;;
35444;SDS011;21562;49.476;6.086;2024-02-26T11:24:40;2.58;;;2.20;;
35444;SDS011;21562;49.476;6.086;2024-02-26T11:27:07;3.25;;;1.98;;
35444;SDS011;21562;49.476;6.086;2024-02-26T11:29:41;2.75;;;1.83;;
35444;SDS011;21562;49.476;6.086;2024-02-26T11:32:15;1.80;;;1.50;;
35444;SDS011;21562;49.476;6.086;2024-02-26T11:34:41;4.03;;;1.75;;
35444;SDS011;21562;49.476;6.086;2024-02-26T11:37:11;2.45;;;2.15;;
35444;SDS011;21562;49.476;6.086;2024-02-26T11:39:41;2.83;;;1.80;;
35444;SDS011;21562;49.476;6.086;2024-02-26T11:42:09;3.42;;;1.52;;
35444;SDS011;21562;49.476;6.086;2024-02-26T11:44:39;2.88;;;1.85;;
35444;SDS011;21562;49.476;6.086;2024-02-26T11:47:13;2.28;;;1.80;;
35444;SDS011;21562;49.476;6.086;2024-02-26T11:49:43;2.90;;;1.88;;
35444;SDS011;21562;49.476;6.086;2024-02-26T11:52:09;3.20;;;1.63;;
35444;SDS011;21562;49.476;6.086;2024-02-26T11:54:49;3.17;;;2.20;;
35444;SDS011;21562;49.476;6.086;2024-02-26T11:57:22;3.80;;;1.95;;
35444;SDS011;21562;49.476;6.086;2024-02-26T11:59:57;3.00;;;2.40;;
35444;SDS011;21562;49.476;6.086;2024-02-26T12:07:39;3.50;;;2.08;;
35444;SDS011;21562;49.476;6.086;2024-02-26T12:10:14;3.35;;;2.08;;
35444;SDS011;21562;49.476;6.086;2024-02-26T12:12:45;4.85;;;1.90;;
35444;SDS011;21562;49.476;6.086;2024-02-26T12:15:11;4.03;;;2.38;;
35444;SDS011;21562;49.476;6.086;2024-02-26T12:17:39;4.72;;;1.65;;
35444;SDS011;21562;49.476;6.086;2024-02-26T12:20:09;3.25;;;2.00;;
35444;SDS011;21562;49.476;6.086;2024-02-26T12:22:36;3.75;;;1.95;;
35444;SDS011;21562;49.476;6.086;2024-02-26T12:25:04;3.35;;;1.73;;
35444;SDS011;21562;49.476;6.086;2024-02-26T12:27:30;4.68;;;1.83;;
35444;SDS011;21562;49.476;6.086;2024-02-26T12:29:56;2.50;;;1.65;;
35444;SDS011;21562;49.476;6.086;2024-02-26T12:32:22;2.78;;;1.75;;
35444;SDS011;21562;49.476;6.086;2024-02-26T12:34:49;5.90;;;1.92;;
35444;SDS011;21562;49.476;6.086;2024-02-26T12:37:15;3.60;;;2.10;;
35444;SDS011;21562;49.476;6.086;2024-02-26T12:39:41;2.22;;;1.70;;
35444;SDS011;21562;49.476;6.086;2024-02-26T12:42:07;3.67;;;1.85;;
35444;SDS011;21562;49.476;6.086;2024-02-26T12:44:34;3.40;;;1.80;;
35444;SDS011;21562;49.476;6.086;2024-02-26T12:47:03;1.58;;;1.40;;
35444;SDS011;21562;49.476;6.086;2024-02-26T12:49:29;3.17;;;1.85;;
35444;SDS011;21562;49.476;6.086;2024-02-26T12:51:56;4.45;;;2.13;;
35444;SDS011;21562;49.476;6.086;2024-02-26T12:54:32;2.78;;;1.73;;
35444;SDS011;21562;49.476;6.086;2024-02-26T12:57:00;4.97;;;2.10;;
35444;SDS011;21562;49.476;6.086;2024-02-26T12:59:27;2.50;;;1.73;;
35444;SDS011;21562;49.476;6.086;2024-02-26T13:01:53;3.00;;;1.60;;
35444;SDS011;21562;49.476;6.086;2024-02-26T13:04:19;3.67;;;1.70;;
35444;SDS011;21562;49.476;6.086;2024-02-26T13:06:45;2.28;;;1.60;;
35444;SDS011;21562;49.476;6.086;2024-02-26T13:09:15;2.05;;;1.60;;
35444;SDS011;21562;49.476;6.086;2024-02-26T13:11:43;5.38;;;1.98;;
35444;SDS011;21562;49.476;6.086;2024-02-26T13:14:26;4.18;;;1.65;;
35444;SDS011;21562;49.476;6.086;2024-02-26T13:16:59;2.63;;;1.70;;
35444;SDS011;21562;49.476;6.086;2024-02-26T13:19:26;2.55;;;1.40;;
35444;SDS011;21562;49.476;6.086;2024-02-26T13:21:54;10.10;;;2.40;;
35444;SDS011;21562;49.476;6.086;2024-02-26T13:24:20;9.85;;;1.63;;
35444;SDS011;21562;49.476;6.086;2024-02-26T13:26:53;2.72;;;1.70;;
35444;SDS011;21562;49.476;6.086;2024-02-26T13:29:19;4.32;;;1.80;;
35444;SDS011;21562;49.476;6.086;2024-02-26T13:31:45;3.58;;;1.40;;
35444;SDS011;21562;49.476;6.086;2024-02-26T13:34:22;3.45;;;1.73;;
35444;SDS011;21562;49.476;6.086;2024-02-26T13:36:49;3.03;;;1.48;;
35444;SDS011;21562;49.476;6.086;2024-02-26T13:39:21;2.65;;;1.45;;
35444;SDS011;21562;49.476;6.086;2024-02-26T13:41:47;3.35;;;1.30;;
35444;SDS011;21562;49.476;6.086;2024-02-26T13:44:13;9.27;;;1.65;;
35444;SDS011;21562;49.476;6.086;2024-02-26T13:46:39;4.22;;;1.63;;
35444;SDS011;21562;49.476;6.086;2024-02-26T13:49:07;8.15;;;1.70;;
35444;SDS011;21562;49.476;6.086;2024-02-26T13:51:34;16.10;;;3.65;;
35444;SDS011;21562;49.476;6.086;2024-02-26T13:54:01;7.90;;;3.00;;
35444;SDS011;21562;49.476;6.086;2024-02-26T13:56:27;7.30;;;3.65;;
35444;SDS011;21562;49.476;6.086;2024-02-26T13:58:53;7.30;;;2.25;;
35444;SDS011;21562;49.476;6.086;2024-02-26T14:01:18;5.13;;;1.67;;
35444;SDS011;21562;49.476;6.086;2024-02-26T14:03:44;8.18;;;2.58;;
35444;SDS011;21562;49.476;6.086;2024-02-26T14:06:10;13.15;;;3.00;;
35444;SDS011;21562;49.476;6.086;2024-02-26T14:08:36;8.57;;;2.47;;
35444;SDS011;21562;49.476;6.086;2024-02-26T14:11:02;16.65;;;2.70;;
35444;SDS011;21562;49.476;6.086;2024-02-26T14:13:28;4.80;;;2.10;;
35444;SDS011;21562;49.476;6.086;2024-02-26T14:15:53;7.47;;;2.45;;
35444;SDS011;21562;49.476;6.086;2024-02-26T14:18:19;3.15;;;1.92;;
35444;SDS011;21562;49.476;6.086;2024-02-26T14:20:45;6.60;;;2.17;;
35444;SDS011;21562;49.476;6.086;2024-02-26T14:23:10;4.57;;;2.00;;
35444;SDS011;21562;49.476;6.086;2024-02-26T14:25:36;4.60;;;2.28;;
35444;SDS011;21562;49.476;6.086;2024-02-26T14:28:02;6.20;;;2.53;;
35444;SDS011;21562;49.476;6.086;2024-02-26T14:30:28;5.32;;;2.38;;
35444;SDS011;21562;49.476;6.086;2024-02-26T14:32:54;6.95;;;2.95;;
35444;SDS011;21562;49.476;6.086;2024-02-26T14:35:20;6.40;;;2.25;;
35444;SDS011;21562;49.476;6.086;2024-02-26T14:37:46;4.47;;;2.22;;
35444;SDS011;21562;49.476;6.086;2024-02-26T14:40:13;3.78;;;1.95;;
35444;SDS011;21562;49.476;6.086;2024-02-26T14:42:40;9.43;;;2.78;;
35444;SDS011;21562;49.476;6.086;2024-02-26T14:45:06;3.80;;;1.70;;
35444;SDS011;21562;49.476;6.086;2024-02-26T14:47:37;7.18;;;1.98;;
35444;SDS011;21562;49.476;6.086;2024-02-26T14:50:03;4.45;;;2.10;;
35444;SDS011;21562;49.476;6.086;2024-02-26T14:52:29;6.43;;;1.77;;
35444;SDS011;21562;49.476;6.086;2024-02-26T14:54:56;3.88;;;1.92;;
35444;SDS011;21562;49.476;6.086;2024-02-26T14:57:23;3.13;;;1.70;;
35444;SDS011;21562;49.476;6.086;2024-02-26T14:59:49;3.45;;;1.88;;
35444;SDS011;21562;49.476;6.086;2024-02-26T15:02:15;4.97;;;2.13;;
35444;SDS011;21562;49.476;6.086;2024-02-26T15:04:41;6.43;;;2.05;;